sensor_id;sensor_type;location;lat;lon;timestamp;pressure;altitude;pressure_sealevel;temperature;humidity
14800;BME280;7491;57.750;11.970;2022-08-19T00:01:23;74633.09;;;-142.11;100.00
14800;BME280;7491;57.750;11.970;2022-08-19T00:03:50;74635.13;;;-142.11;100.00
14800;BME280;7491;57.750;11.970;2022-08-19T00:06:17;74639.22;;;-142.11;100.00
14800;BME280;7491;57.750;11.970;2022-08-19T00:08:44;74633.09;;;-142.11;100.00
14800;BME280;7491;57.750;11.970;2022-08-19T00:11:11;74622.91;;;-142.11;100.00
14800;BME280;7491;57.750;11.970;2022-08-19T00:13:39;74622.91;;;-142.11;100.00
14800;BME280;7491;57.750;11.970;2022-08-19T00:16:06;74622.91;;;-142.11;100.00
14800;BME280;7491;57.750;11.970;2022-08-19T00:18:33;74639.22;;;-142.11;100.00
14800;BME280;7491;57.750;11.970;2022-08-19T00:21:00;74622.91;;;-142.11;100.00
14800;BME280;7491;57.750;11.970;2022-08-19T00:23:27;74624.94;;;-142.11;100.00
14800;BME280;7491;57.750;11.970;2022-08-19T00:25:54;74629.00;;;-142.11;100.00
14800;BME280;7491;57.750;11.970;2022-08-19T00:28:21;74624.94;;;-142.11;100.00
14800;BME280;7491;57.750;11.970;2022-08-19T00:30:49;74631.06;;;-142.11;100.00
14800;BME280;7491;57.750;11.970;2022-08-19T00:33:17;74635.13;;;-142.11;100.00
14800;BME280;7491;57.750;11.970;2022-08-19T00:35:43;74633.09;;;-142.11;100.00
14800;BME280;7491;57.750;11.970;2022-08-19T00:38:10;74626.97;;;-142.11;100.00
14800;BME280;7491;57.750;11.970;2022-08-19T00:40:36;74620.88;;;-142.11;100.00
14800;BME280;7491;57.750;11.970;2022-08-19T00:43:08;74622.91;;;-142.11;100.00
14800;BME280;7491;57.750;11.970;2022-08-19T00:45:35;74626.97;;;-142.11;100.00
14800;BME280;7491;57.750;11.970;2022-08-19T00:48:03;74639.22;;;-142.11;100.00
14800;BME280;7491;57.750;11.970;2022-08-19T00:50:30;74639.22;;;-142.11;100.00
14800;BME280;7491;57.750;11.970;2022-08-19T00:52:58;74639.22;;;-142.11;100.00
14800;BME280;7491;57.750;11.970;2022-08-19T00:55:26;74643.28;;;-142.11;100.00
14800;BME280;7491;57.750;11.970;2022-08-19T00:57:57;74639.22;;;-142.11;100.00
14800;BME280;7491;57.750;11.970;2022-08-19T01:00:27;74653.47;;;-142.11;100.00
14800;BME280;7491;57.750;11.970;2022-08-19T01:02:55;74651.44;;;-142.11;100.00
14800;BME280;7491;57.750;11.970;2022-08-19T01:05:26;74645.31;;;-142.11;100.00
14800;BME280;7491;57.750;11.970;2022-08-19T01:07:54;74657.53;;;-142.11;100.00
14800;BME280;7491;57.750;11.970;2022-08-19T01:10:26;74657.53;;;-142.11;100.00
14800;BME280;7491;57.750;11.970;2022-08-19T01:12:53;74649.41;;;-142.11;100.00
14800;BME280;7491;57.750;11.970;2022-08-19T01:15:24;74645.31;;;-142.11;100.00
14800;BME280;7491;57.750;11.970;2022-08-19T01:17:53;74649.41;;;-142.11;100.00
14800;BME280;7491;57.750;11.970;2022-08-19T01:20:23;74645.31;;;-142.11;100.00
14800;BME280;7491;57.750;11.970;2022-08-19T01:22:53;74647.34;;;-142.11;100.00
14800;BME280;7491;57.750;11.970;2022-08-19T01:25:22;74651.44;;;-142.11;100.00
14800;BME280;7491;57.750;11.970;2022-08-19T01:27:51;74647.34;;;-142.11;100.00
14800;BME280;7491;57.750;11.970;2022-08-19T01:30:21;74647.34;;;-142.11;100.00
14800;BME280;7491;57.750;11.970;2022-08-19T01:32:48;74641.25;;;-142.11;100.00
14800;BME280;7491;57.750;11.970;2022-08-19T01:35:16;74639.22;;;-142.11;100.00
14800;BME280;7491;57.750;11.970;2022-08-19T01:37:48;74643.28;;;-142.11;100.00
14800;BME280;7491;57.750;11.970;2022-08-19T01:40:17;74647.34;;;-142.11;100.00
14800;BME280;7491;57.750;11.970;2022-08-19T01:42:45;74647.34;;;-142.11;100.00
14800;BME280;7491;57.750;11.970;2022-08-19T01:45:12;74643.28;;;-142.11;100.00
14800;BME280;7491;57.750;11.970;2022-08-19T01:47:39;74649.41;;;-142.11;100.00
14800;BME280;7491;57.750;11.970;2022-08-19T01:50:08;74653.47;;;-142.11;100.00
14800;BME280;7491;57.750;11.970;2022-08-19T01:52:35;74659.59;;;-142.11;100.00
14800;BME280;7491;57.750;11.970;2022-08-19T01:55:03;74661.63;;;-142.11;100.00
14800;BME280;7491;57.750;11.970;2022-08-19T01:57:32;74667.72;;;-142.11;100.00
14800;BME280;7491;57.750;11.970;2022-08-19T01:59:59;74669.78;;;-142.11;100.00
14800;BME280;7491;57.750;11.970;2022-08-19T02:02:25;74663.66;;;-142.11;100.00
14800;BME280;7491;57.750;11.970;2022-08-19T02:04:52;74655.50;;;-142.11;100.00
14800;BME280;7491;57.750;11.970;2022-08-19T02:07:19;74651.44;;;-142.11;100.00
14800;BME280;7491;57.750;11.970;2022-08-19T02:09:45;74647.34;;;-142.11;100.00
14800;BME280;7491;57.750;11.970;2022-08-19T02:12:13;74647.34;;;-142.11;100.00
14800;BME280;7491;57.750;11.970;2022-08-19T02:14:43;74657.53;;;-142.11;100.00
14800;BME280;7491;57.750;11.970;2022-08-19T02:17:09;74655.50;;;-142.11;100.00
14800;BME280;7491;57.750;11.970;2022-08-19T02:19:36;74661.63;;;-142.11;100.00
14800;BME280;7491;57.750;11.970;2022-08-19T02:22:03;74663.66;;;-142.11;100.00
14800;BME280;7491;57.750;11.970;2022-08-19T02:24:29;74657.53;;;-142.11;100.00
14800;BME280;7491;57.750;11.970;2022-08-19T02:26:56;74667.72;;;-142.11;100.00
14800;BME280;7491;57.750;11.970;2022-08-19T02:29:24;74671.81;;;-142.11;100.00
14800;BME280;7491;57.750;11.970;2022-08-19T02:31:52;74677.91;;;-142.11;100.00
14800;BME280;7491;57.750;11.970;2022-08-19T02:34:18;74663.66;;;-142.11;100.00
14800;BME280;7491;57.750;11.970;2022-08-19T02:36:45;74671.81;;;-142.11;100.00
14800;BME280;7491;57.750;11.970;2022-08-19T02:39:11;74677.91;;;-142.11;100.00
14800;BME280;7491;57.750;11.970;2022-08-19T02:41:37;74673.84;;;-142.11;100.00
14800;BME280;7491;57.750;11.970;2022-08-19T02:44:04;74679.97;;;-142.11;100.00
14800;BME280;7491;57.750;11.970;2022-08-19T02:46:32;74667.72;;;-142.11;100.00
14800;BME280;7491;57.750;11.970;2022-08-19T02:49:03;74669.78;;;-142.11;100.00
14800;BME280;7491;57.750;11.970;2022-08-19T02:51:32;74673.84;;;-142.11;100.00
14800;BME280;7491;57.750;11.970;2022-08-19T02:53:59;74663.66;;;-142.11;100.00
14800;BME280;7491;57.750;11.970;2022-08-19T02:56:26;74673.84;;;-142.11;100.00
14800;BME280;7491;57.750;11.970;2022-08-19T02:58:53;74673.84;;;-142.11;100.00
14800;BME280;7491;57.750;11.970;2022-08-19T03:01:22;74671.81;;;-142.11;100.00
14800;BME280;7491;57.750;11.970;2022-08-19T03:03:50;74679.97;;;-142.11;100.00
14800;BME280;7491;57.750;11.970;2022-08-19T03:06:18;74679.97;;;-142.11;100.00
14800;BME280;7491;57.750;11.970;2022-08-19T03:08:47;74673.84;;;-142.11;100.00
14800;BME280;7491;57.750;11.970;2022-08-19T03:11:15;74667.72;;;-142.11;100.00
14800;BME280;7491;57.750;11.970;2022-08-19T03:13:42;74655.50;;;-142.11;100.00
14800;BME280;7491;57.750;11.970;2022-08-19T03:16:09;74651.44;;;-142.11;100.00
14800;BME280;7491;57.750;11.970;2022-08-19T03:18:36;74649.41;;;-142.11;100.00
14800;BME280;7491;57.750;11.970;2022-08-19T03:21:03;74651.44;;;-142.11;100.00
14800;BME280;7491;57.750;11.970;2022-08-19T03:23:33;74659.59;;;-142.11;100.00
14800;BME280;7491;57.750;11.970;2022-08-19T03:26:03;74653.47;;;-142.11;100.00
14800;BME280;7491;57.750;11.970;2022-08-19T03:28:30;74667.72;;;-142.11;100.00
14800;BME280;7491;57.750;11.970;2022-08-19T03:30:59;74677.91;;;-142.11;100.00
14800;BME280;7491;57.750;11.970;2022-08-19T03:33:27;74686.06;;;-142.11;100.00
14800;BME280;7491;57.750;11.970;2022-08-19T03:36:06;74682.00;;;-142.11;100.00
14800;BME280;7491;57.750;11.970;2022-08-19T03:38:36;74682.00;;;-142.11;100.00
14800;BME280;7491;57.750;11.970;2022-08-19T03:41:04;74675.88;;;-142.11;100.00
14800;BME280;7491;57.750;11.970;2022-08-19T03:43:32;74675.88;;;-142.11;100.00
14800;BME280;7491;57.750;11.970;2022-08-19T03:46:00;74679.97;;;-142.11;100.00
14800;BME280;7491;57.750;11.970;2022-08-19T03:48:28;74686.06;;;-142.11;100.00
14800;BME280;7491;57.750;11.970;2022-08-19T03:50:55;74686.06;;;-142.11;100.00
14800;BME280;7491;57.750;11.970;2022-08-19T03:53:23;74684.03;;;-142.11;100.00
14800;BME280;7491;57.750;11.970;2022-08-19T03:55:52;74686.06;;;-142.11;100.00
14800;BME280;7491;57.750;11.970;2022-08-19T03:58:19;74692.19;;;-142.11;100.00
14800;BME280;7491;57.750;11.970;2022-08-19T04:00:45;74700.34;;;-142.11;100.00
14800;BME280;7491;57.750;11.970;2022-08-19T04:03:12;74702.38;;;-142.11;100.00
14800;BME280;7491;57.750;11.970;2022-08-19T04:05:39;74700.34;;;-142.11;100.00
14800;BME280;7491;57.750;11.970;2022-08-19T04:08:05;74706.44;;;-142.11;100.00
14800;BME280;7491;57.750;11.970;2022-08-19T04:10:35;74712.56;;;-142.11;100.00
14800;BME280;7491;57.750;11.970;2022-08-19T04:13:04;74716.63;;;-142.11;100.00
14800;BME280;7491;57.750;11.970;2022-08-19T04:15:32;74716.63;;;-142.11;100.00
14800;BME280;7491;57.750;11.970;2022-08-19T04:18:04;74718.66;;;-142.11;100.00
14800;BME280;7491;57.750;11.970;2022-08-19T04:20:33;74724.78;;;-142.11;100.00
14800;BME280;7491;57.750;11.970;2022-08-19T04:22:59;74710.53;;;-142.11;100.00
14800;BME280;7491;57.750;11.970;2022-08-19T04:25:26;74704.41;;;-142.11;100.00
14800;BME280;7491;57.750;11.970;2022-08-19T04:27:52;74702.38;;;-142.11;100.00
14800;BME280;7491;57.750;11.970;2022-08-19T04:30:21;74706.44;;;-142.11;100.00
14800;BME280;7491;57.750;11.970;2022-08-19T04:32:47;74702.38;;;-142.11;100.00
14800;BME280;7491;57.750;11.970;2022-08-19T04:35:16;74698.28;;;-142.11;100.00
14800;BME280;7491;57.750;11.970;2022-08-19T04:37:42;74698.28;;;-142.11;100.00
14800;BME280;7491;57.750;11.970;2022-08-19T04:40:09;74706.44;;;-142.11;100.00
14800;BME280;7491;57.750;11.970;2022-08-19T04:42:53;74716.63;;;-142.11;100.00
14800;BME280;7491;57.750;11.970;2022-08-19T04:45:22;74698.28;;;-142.11;100.00
14800;BME280;7491;57.750;11.970;2022-08-19T04:47:54;74692.19;;;-142.11;100.00
14800;BME280;7491;57.750;11.970;2022-08-19T04:50:21;74686.06;;;-142.11;100.00
14800;BME280;7491;57.750;11.970;2022-08-19T04:52:50;74679.97;;;-142.11;100.00
14800;BME280;7491;57.750;11.970;2022-08-19T04:55:18;74694.22;;;-142.11;100.00
14800;BME280;7491;57.750;11.970;2022-08-19T04:57:45;74696.25;;;-142.11;100.00
14800;BME280;7491;57.750;11.970;2022-08-19T05:00:12;74696.25;;;-142.11;100.00
14800;BME280;7491;57.750;11.970;2022-08-19T05:02:40;74688.09;;;-142.11;100.00
14800;BME280;7491;57.750;11.970;2022-08-19T05:05:07;74696.25;;;-142.11;100.00
14800;BME280;7491;57.750;11.970;2022-08-19T05:07:34;74684.03;;;-142.11;100.00
14800;BME280;7491;57.750;11.970;2022-08-19T05:10:01;74692.19;;;-142.11;100.00
14800;BME280;7491;57.750;11.970;2022-08-19T05:12:28;74677.91;;;-142.11;100.00
14800;BME280;7491;57.750;11.970;2022-08-19T05:14:55;74688.09;;;-142.11;100.00
14800;BME280;7491;57.750;11.970;2022-08-19T05:17:22;74671.81;;;-142.11;100.00
14800;BME280;7491;57.750;11.970;2022-08-19T05:19:50;74675.88;;;-142.11;100.00
14800;BME280;7491;57.750;11.970;2022-08-19T05:22:34;74663.66;;;-142.11;100.00
14800;BME280;7491;57.750;11.970;2022-08-19T05:25:04;74671.81;;;-142.11;100.00
14800;BME280;7491;57.750;11.970;2022-08-19T05:27:31;74661.63;;;-142.11;100.00
14800;BME280;7491;57.750;11.970;2022-08-19T05:29:58;74661.63;;;-142.11;100.00
14800;BME280;7491;57.750;11.970;2022-08-19T05:32:25;74651.44;;;-142.11;100.00
14800;BME280;7491;57.750;11.970;2022-08-19T05:34:53;74659.59;;;-142.11;100.00
14800;BME280;7491;57.750;11.970;2022-08-19T05:37:20;74661.63;;;-142.11;100.00
14800;BME280;7491;57.750;11.970;2022-08-19T05:39:47;74673.84;;;-142.11;100.00
14800;BME280;7491;57.750;11.970;2022-08-19T05:42:14;74690.16;;;-142.11;100.00
14800;BME280;7491;57.750;11.970;2022-08-19T05:44:43;74684.03;;;-142.11;100.00
14800;BME280;7491;57.750;11.970;2022-08-19T05:47:12;74673.84;;;-142.11;100.00
14800;BME280;7491;57.750;11.970;2022-08-19T05:49:40;74649.41;;;-142.11;100.00
14800;BME280;7491;57.750;11.970;2022-08-19T05:52:10;74651.44;;;-142.11;100.00
14800;BME280;7491;57.750;11.970;2022-08-19T05:54:38;74663.66;;;-142.11;100.00
14800;BME280;7491;57.750;11.970;2022-08-19T05:57:06;74682.00;;;-142.11;100.00
14800;BME280;7491;57.750;11.970;2022-08-19T05:59:32;74682.00;;;-142.11;100.00
14800;BME280;7491;57.750;11.970;2022-08-19T06:02:01;74671.81;;;-142.11;100.00
14800;BME280;7491;57.750;11.970;2022-08-19T06:04:28;74663.66;;;-142.11;100.00
14800;BME280;7491;57.750;11.970;2022-08-19T06:06:55;74653.47;;;-142.11;100.00
14800;BME280;7491;57.750;11.970;2022-08-19T06:09:23;74633.09;;;-142.11;100.00
14800;BME280;7491;57.750;11.970;2022-08-19T06:11:51;74641.25;;;-142.11;100.00
14800;BME280;7491;57.750;11.970;2022-08-19T06:14:22;74637.16;;;-142.11;100.00
14800;BME280;7491;57.750;11.970;2022-08-19T06:16:49;74624.94;;;-142.11;100.00
14800;BME280;7491;57.750;11.970;2022-08-19T06:19:19;74612.72;;;-142.11;100.00
14800;BME280;7491;57.750;11.970;2022-08-19T06:21:49;74608.63;;;-142.11;100.00
14800;BME280;7491;57.750;11.970;2022-08-19T06:24:19;74604.56;;;-142.11;100.00
14800;BME280;7491;57.750;11.970;2022-08-19T06:26:51;74600.50;;;-142.11;100.00
14800;BME280;7491;57.750;11.970;2022-08-19T06:29:20;74584.19;;;-142.11;100.00
14800;BME280;7491;57.750;11.970;2022-08-19T06:31:48;74584.19;;;-142.11;100.00
14800;BME280;7491;57.750;11.970;2022-08-19T06:34:16;74565.84;;;-142.11;100.00
14800;BME280;7491;57.750;11.970;2022-08-19T06:36:45;74545.47;;;-142.11;100.00
14800;BME280;7491;57.750;11.970;2022-08-19T06:39:14;74529.19;;;-142.11;100.00
14800;BME280;7491;57.750;11.970;2022-08-19T06:41:43;74529.19;;;-142.11;100.00
14800;BME280;7491;57.750;11.970;2022-08-19T06:44:12;74508.81;;;-142.11;100.00
14800;BME280;7491;57.750;11.970;2022-08-19T06:46:40;74496.56;;;-142.11;100.00
14800;BME280;7491;57.750;11.970;2022-08-19T06:49:07;74472.13;;;-142.11;100.00
14800;BME280;7491;57.750;11.970;2022-08-19T06:51:35;74463.97;;;-142.11;100.00
14800;BME280;7491;57.750;11.970;2022-08-19T06:54:02;74447.69;;;-142.11;100.00
14800;BME280;7491;57.750;11.970;2022-08-19T06:56:30;74431.38;;;-142.11;100.00
14800;BME280;7491;57.750;11.970;2022-08-19T06:59:00;74408.97;;;-142.11;100.00
14800;BME280;7491;57.750;11.970;2022-08-19T07:01:28;74406.94;;;-142.11;100.00
14800;BME280;7491;57.750;11.970;2022-08-19T07:03:54;74411.00;;;-142.11;100.00
14800;BME280;7491;57.750;11.970;2022-08-19T07:06:21;74417.13;;;-142.11;100.00
14800;BME280;7491;57.750;11.970;2022-08-19T07:08:48;74431.38;;;-142.11;100.00
14800;BME280;7491;57.750;11.970;2022-08-19T07:11:17;74427.31;;;-142.11;100.00
14800;BME280;7491;57.750;11.970;2022-08-19T07:13:44;74435.44;;;-142.11;100.00
14800;BME280;7491;57.750;11.970;2022-08-19T07:16:15;74437.50;;;-142.11;100.00
14800;BME280;7491;57.750;11.970;2022-08-19T07:18:43;74439.53;;;-142.11;100.00
14800;BME280;7491;57.750;11.970;2022-08-19T07:21:12;74429.34;;;-142.11;100.00
14800;BME280;7491;57.750;11.970;2022-08-19T07:23:40;74437.50;;;-142.11;100.00
14800;BME280;7491;57.750;11.970;2022-08-19T07:26:08;74441.56;;;-142.11;100.00
14800;BME280;7491;57.750;11.970;2022-08-19T07:28:35;74455.81;;;-142.11;100.00
14800;BME280;7491;57.750;11.970;2022-08-19T07:31:05;74451.75;;;-142.11;100.00
14800;BME280;7491;57.750;11.970;2022-08-19T07:33:31;74449.72;;;-142.11;100.00
14800;BME280;7491;57.750;11.970;2022-08-19T07:36:03;74435.44;;;-142.11;100.00
14800;BME280;7491;57.750;11.970;2022-08-19T07:38:30;74415.06;;;-142.11;100.00
14800;BME280;7491;57.750;11.970;2022-08-19T07:40:57;74400.81;;;-142.11;100.00
14800;BME280;7491;57.750;11.970;2022-08-19T07:43:24;74400.81;;;-142.11;100.00
14800;BME280;7491;57.750;11.970;2022-08-19T07:45:52;74415.06;;;-142.11;100.00
14800;BME280;7491;57.750;11.970;2022-08-19T07:48:21;74408.97;;;-142.11;100.00
14800;BME280;7491;57.750;11.970;2022-08-19T07:50:51;74398.78;;;-142.11;100.00
14800;BME280;7491;57.750;11.970;2022-08-19T07:53:20;74394.69;;;-142.11;100.00
14800;BME280;7491;57.750;11.970;2022-08-19T07:55:47;74366.19;;;-142.11;100.00
14800;BME280;7491;57.750;11.970;2022-08-19T07:58:16;74372.28;;;-142.11;100.00
14800;BME280;7491;57.750;11.970;2022-08-19T08:00:47;74370.25;;;-142.11;100.00
14800;BME280;7491;57.750;11.970;2022-08-19T08:03:16;74343.78;;;-142.11;100.00
14800;BME280;7491;57.750;11.970;2022-08-19T08:05:43;74343.78;;;-142.11;100.00
14800;BME280;7491;57.750;11.970;2022-08-19T08:08:28;74339.69;;;-142.11;100.00
14800;BME280;7491;57.750;11.970;2022-08-19T08:11:13;74288.75;;;-142.11;100.00
14800;BME280;7491;57.750;11.970;2022-08-19T08:13:40;74276.53;;;-142.11;100.00
14800;BME280;7491;57.750;11.970;2022-08-19T08:16:07;74298.94;;;-142.11;100.00
14800;BME280;7491;57.750;11.970;2022-08-19T08:18:34;74303.03;;;-142.11;100.00
14800;BME280;7491;57.750;11.970;2022-08-19T08:21:06;74278.56;;;-142.11;100.00
14800;BME280;7491;57.750;11.970;2022-08-19T08:23:34;74280.59;;;-142.11;100.00
14800;BME280;7491;57.750;11.970;2022-08-19T08:26:01;74268.38;;;-142.11;100.00
14800;BME280;7491;57.750;11.970;2022-08-19T08:28:29;74250.03;;;-142.11;100.00
14800;BME280;7491;57.750;11.970;2022-08-19T08:30:57;74272.47;;;-142.11;100.00
14800;BME280;7491;57.750;11.970;2022-08-19T08:33:27;74254.13;;;-142.11;100.00
14800;BME280;7491;57.750;11.970;2022-08-19T08:35:55;74241.91;;;-142.11;100.00
14800;BME280;7491;57.750;11.970;2022-08-19T08:38:21;74231.72;;;-142.11;100.00
14800;BME280;7491;57.750;11.970;2022-08-19T08:40:52;74235.78;;;-142.11;100.00
14800;BME280;7491;57.750;11.970;2022-08-19T08:43:27;74217.44;;;-142.11;100.00
14800;BME280;7491;57.750;11.970;2022-08-19T08:46:00;74197.06;;;-142.11;100.00
14800;BME280;7491;57.750;11.970;2022-08-19T08:48:35;74188.94;;;-142.11;100.00
14800;BME280;7491;57.750;11.970;2022-08-19T08:51:05;74184.84;;;-142.11;100.00
14800;BME280;7491;57.750;11.970;2022-08-19T08:53:34;74195.03;;;-142.11;100.00
14800;BME280;7491;57.750;11.970;2022-08-19T08:56:06;74201.16;;;-142.11;100.00
14800;BME280;7491;57.750;11.970;2022-08-19T08:58:42;74203.19;;;-142.11;100.00
14800;BME280;7491;57.750;11.970;2022-08-19T09:01:11;74193.00;;;-142.11;100.00
14800;BME280;7491;57.750;11.970;2022-08-19T09:03:39;74203.19;;;-142.11;100.00
14800;BME280;7491;57.750;11.970;2022-08-19T09:06:13;74209.28;;;-142.11;100.00
14800;BME280;7491;57.750;11.970;2022-08-19T09:08:47;74211.34;;;-142.11;100.00
14800;BME280;7491;57.750;11.970;2022-08-19T09:11:25;74205.22;;;-142.11;100.00
14800;BME280;7491;57.750;11.970;2022-08-19T09:14:05;74195.03;;;-142.11;100.00
14800;BME280;7491;57.750;11.970;2022-08-19T09:16:34;74188.94;;;-142.11;100.00
14800;BME280;7491;57.750;11.970;2022-08-19T09:19:03;74168.56;;;-142.11;100.00
14800;BME280;7491;57.750;11.970;2022-08-19T09:21:30;74154.28;;;-142.11;100.00
14800;BME280;7491;57.750;11.970;2022-08-19T09:23:57;74166.50;;;-142.11;100.00
14800;BME280;7491;57.750;11.970;2022-08-19T09:26:26;74156.31;;;-142.11;100.00
14800;BME280;7491;57.750;11.970;2022-08-19T09:28:53;74170.59;;;-142.11;100.00
14800;BME280;7491;57.750;11.970;2022-08-19T09:31:22;74176.69;;;-142.11;100.00
14800;BME280;7491;57.750;11.970;2022-08-19T09:33:50;74190.97;;;-142.11;100.00
14800;BME280;7491;57.750;11.970;2022-08-19T09:36:19;74176.69;;;-142.11;100.00
14800;BME280;7491;57.750;11.970;2022-08-19T09:38:47;74186.88;;;-142.11;100.00
14800;BME280;7491;57.750;11.970;2022-08-19T09:41:20;74195.03;;;-142.11;100.00
14800;BME280;7491;57.750;11.970;2022-08-19T09:43:50;74186.88;;;-142.11;100.00
14800;BME280;7491;57.750;11.970;2022-08-19T09:46:19;74182.81;;;-142.11;100.00
14800;BME280;7491;57.750;11.970;2022-08-19T09:48:47;74180.78;;;-142.11;100.00
14800;BME280;7491;57.750;11.970;2022-08-19T09:51:18;74170.59;;;-142.11;100.00
14800;BME280;7491;57.750;11.970;2022-08-19T09:53:45;74164.47;;;-142.11;100.00
14800;BME280;7491;57.750;11.970;2022-08-19T09:56:16;74178.75;;;-142.11;100.00
14800;BME280;7491;57.750;11.970;2022-08-19T09:58:43;74152.25;;;-142.11;100.00
14800;BME280;7491;57.750;11.970;2022-08-19T10:01:17;74152.25;;;-142.11;100.00
14800;BME280;7491;57.750;11.970;2022-08-19T10:03:47;74146.16;;;-142.11;100.00
14800;BME280;7491;57.750;11.970;2022-08-19T10:06:14;74131.88;;;-142.11;100.00
14800;BME280;7491;57.750;11.970;2022-08-19T10:08:39;74117.63;;;-142.11;100.00
14800;BME280;7491;57.750;11.970;2022-08-19T10:11:06;74133.91;;;-142.11;100.00
14800;BME280;7491;57.750;11.970;2022-08-19T10:13:33;74129.84;;;-142.11;100.00
14800;BME280;7491;57.750;11.970;2022-08-19T10:16:04;74115.59;;;-142.11;100.00
14800;BME280;7491;57.750;11.970;2022-08-19T10:18:33;74117.63;;;-142.11;100.00
14800;BME280;7491;57.750;11.970;2022-08-19T10:21:05;74103.34;;;-142.11;100.00
14800;BME280;7491;57.750;11.970;2022-08-19T10:23:34;74095.22;;;-142.11;100.00
14800;BME280;7491;57.750;11.970;2022-08-19T10:26:02;74099.28;;;-142.11;100.00
14800;BME280;7491;57.750;11.970;2022-08-19T10:28:32;74109.47;;;-142.11;100.00
14800;BME280;7491;57.750;11.970;2022-08-19T10:31:01;74111.50;;;-142.11;100.00
14800;BME280;7491;57.750;11.970;2022-08-19T10:33:29;74117.63;;;-142.11;100.00
14800;BME280;7491;57.750;11.970;2022-08-19T10:36:00;74129.84;;;-142.11;100.00
14800;BME280;7491;57.750;11.970;2022-08-19T10:38:26;74115.59;;;-142.11;100.00
14800;BME280;7491;57.750;11.970;2022-08-19T10:40:54;74109.47;;;-142.11;100.00
14800;BME280;7491;57.750;11.970;2022-08-19T10:43:21;74109.47;;;-142.11;100.00
14800;BME280;7491;57.750;11.970;2022-08-19T10:45:51;74091.13;;;-142.11;100.00
14800;BME280;7491;57.750;11.970;2022-08-19T10:48:19;74080.94;;;-142.11;100.00
14800;BME280;7491;57.750;11.970;2022-08-19T10:50:45;74076.88;;;-142.11;100.00
14800;BME280;7491;57.750;11.970;2022-08-19T10:53:30;74064.66;;;-142.11;100.00
14800;BME280;7491;57.750;11.970;2022-08-19T10:55:57;74056.50;;;-142.11;100.00
14800;BME280;7491;57.750;11.970;2022-08-19T10:58:41;74060.56;;;-142.11;100.00
14800;BME280;7491;57.750;11.970;2022-08-19T11:01:08;74058.53;;;-142.11;100.00
14800;BME280;7491;57.750;11.970;2022-08-19T11:03:35;74050.38;;;-142.11;100.00
14800;BME280;7491;57.750;11.970;2022-08-19T11:06:04;74044.28;;;-142.11;100.00
14800;BME280;7491;57.750;11.970;2022-08-19T11:08:33;74030.03;;;-142.11;100.00
14800;BME280;7491;57.750;11.970;2022-08-19T11:11:01;74015.75;;;-142.11;100.00
14800;BME280;7491;57.750;11.970;2022-08-19T11:13:29;74025.94;;;-142.11;100.00
14800;BME280;7491;57.750;11.970;2022-08-19T11:15:58;74025.94;;;-142.11;100.00
14800;BME280;7491;57.750;11.970;2022-08-19T11:18:25;74005.56;;;-142.11;100.00
14800;BME280;7491;57.750;11.970;2022-08-19T11:20:51;74017.78;;;-142.11;100.00
14800;BME280;7491;57.750;11.970;2022-08-19T11:23:18;74007.59;;;-142.11;100.00
14800;BME280;7491;57.750;11.970;2022-08-19T11:25:46;74005.56;;;-142.11;100.00
14800;BME280;7491;57.750;11.970;2022-08-19T11:28:13;74001.50;;;-142.11;100.00
14800;BME280;7491;57.750;11.970;2022-08-19T11:30:39;73966.88;;;-142.11;100.00
14800;BME280;7491;57.750;11.970;2022-08-19T11:33:06;73972.97;;;-142.11;100.00
14800;BME280;7491;57.750;11.970;2022-08-19T11:35:32;73964.81;;;-142.11;100.00
14800;BME280;7491;57.750;11.970;2022-08-19T11:37:59;73942.41;;;-142.11;100.00
14800;BME280;7491;57.750;11.970;2022-08-19T11:40:27;73964.81;;;-142.11;100.00
14800;BME280;7491;57.750;11.970;2022-08-19T11:42:55;73952.59;;;-142.11;100.00
14800;BME280;7491;57.750;11.970;2022-08-19T11:45:22;73954.66;;;-142.11;100.00
14800;BME280;7491;57.750;11.970;2022-08-19T11:47:49;73958.72;;;-142.11;100.00
14800;BME280;7491;57.750;11.970;2022-08-19T11:50:16;73964.81;;;-142.11;100.00
14800;BME280;7491;57.750;11.970;2022-08-19T11:52:42;73950.56;;;-142.11;100.00
14800;BME280;7491;57.750;11.970;2022-08-19T11:55:10;73936.31;;;-142.11;100.00
14800;BME280;7491;57.750;11.970;2022-08-19T11:57:36;73930.19;;;-142.11;100.00
14800;BME280;7491;57.750;11.970;2022-08-19T12:00:06;73922.03;;;-142.11;100.00
14800;BME280;7491;57.750;11.970;2022-08-19T12:02:33;73928.16;;;-142.11;100.00
14800;BME280;7491;57.750;11.970;2022-08-19T12:05:00;73907.78;;;-142.11;100.00
14800;BME280;7491;57.750;11.970;2022-08-19T12:07:28;73907.78;;;-142.11;100.00
14800;BME280;7491;57.750;11.970;2022-08-19T12:09:56;73913.91;;;-142.11;100.00
14800;BME280;7491;57.750;11.970;2022-08-19T12:12:23;73905.75;;;-142.11;100.00
14800;BME280;7491;57.750;11.970;2022-08-19T12:14:50;73893.53;;;-142.11;100.00
14800;BME280;7491;57.750;11.970;2022-08-19T12:17:23;73879.25;;;-142.11;100.00
14800;BME280;7491;57.750;11.970;2022-08-19T12:19:50;73909.81;;;-142.11;100.00
14800;BME280;7491;57.750;11.970;2022-08-19T12:22:16;73903.72;;;-142.11;100.00
14800;BME280;7491;57.750;11.970;2022-08-19T12:24:43;73893.53;;;-142.11;100.00
14800;BME280;7491;57.750;11.970;2022-08-19T12:27:10;73897.59;;;-142.11;100.00
14800;BME280;7491;57.750;11.970;2022-08-19T12:29:36;73895.56;;;-142.11;100.00
14800;BME280;7491;57.750;11.970;2022-08-19T12:32:03;73905.75;;;-142.11;100.00
14800;BME280;7491;57.750;11.970;2022-08-19T12:34:32;73907.78;;;-142.11;100.00
14800;BME280;7491;57.750;11.970;2022-08-19T12:37:01;73901.69;;;-142.11;100.00